Terminal Aerodrome Forecast
Issued by NWS

Home | Current Version | Previous Version | Text Only | Print | Product List | Glossary On
Versions: 1 2 3 4 5 6 7 8 9 10 11 12 13 14 15 16 17
000
FTUS45 KFGZ 291922 AAA
TAFSEZ
TAF AMD
KSEZ 291922Z 2919/3018 16008G14KT P6SM SKC
     FM292330 20008G12KT P6SM SKC
     FM300330 04008KT P6SM SKC=

USA.gov is the U.S. government's official web portal to all federal, state and local government web resources and services.